Aeroporto :







RITROVATECI SU...

 
LOGIN :

Iscrizione | Disclaimer

   EN    FR    IT 

 









Sommario :    VFR   VFR Marginale   IFR   IFR Intensivo   IFR Molto Intensivo
Visibilità : 
Base nubi : 
>= 8 km
>= 3000ft
5 / 8 km
1000 / 3000 ft
1500m / 5 km
500 / 1000 ft
800 / 1500m
200 / 500 ft
< 800m
< 200 ft
Simboli :   Temporali  Nebbia  Neve Forte  Precipitazioni Forti  Vento > 20 kt






- Altitudine del aeroporto : 244 ft
- Codice IATA : YQB


CYQB - Quebec - Jean Lesage Int.

METAR N/A
TAF TAF CYQB
Valido dal 27 a 06 ore il 28 a 06 ore UTC


270538Z 2706/2806 06005KT 3/4SM -DZ BR OVC002
TEMPO 2706/2712 3SM BR OVC006
PROB30 2706/2710 OVC001
FM271200 26008KT 3SM -DZ BR SCT003 OVC006
FM271600 26008KT P6SM SCT008 OVC020
TEMPO 2716/2718 5SM -DZ BR BKN008 OVC020
FM271800 26008KT P6SM SCT020 OVC030
FM280000 26005KT 6SM BR SCT003 OVC030 RMK NXT FCST BY 271200Z
ATIS : ENG : +1 418-871-6893 FRA : +1 418-871-6895
FIR CZUL / America del Nord



MetMap, La meteo Aeronautica in un colpo d'occhio ! - Copyright ORBIFLY Dicembre 2007 - Disclaimer

ORBIFLY MET'MAP TEAM :

Programmazione e sviluppo : Alexandra Zaïnal
Concezione : Baudouin d'Aumeries
Aiuto per la programmazione : Marc-Olivier Méhu
Supporto tecnico e logistico : Manuel Goepfert
Aiuto per la traduzione : Arnaldo La Scala

Contatto : metmap@orbifly.com




FONTI E CREDITI :

   NOAA